Time;durP1;ratioP1;P1;durP2;ratioP2;P2;SDS_P1;SDS_P2;PMS_P1;PMS_P2;Temp;Humidity;BMP_temperature;BMP_pressure;BME280_temperature;BME280_humidity;BME280_pressure;Samples;Min_cycle;Max_cycle;Signal;HPM_P1;HPM_P2
2024/01/14 00:03:26;;;;;;;5.07;2.00;;;20.00;40.00;;;;;;8326648;28;20038;-44
2024/01/14 00:07:27;;;;;;;2.75;1.92;;;20.00;39.90;;;;;;8324696;28;20053;-43
2024/01/14 00:11:28;;;;;;;3.42;2.17;;;19.90;40.20;;;;;;8326237;28;20057;-45
2024/01/14 00:15:28;;;;;;;4.07;1.83;;;19.70;41.10;;;;;;8324859;28;20072;-44
2024/01/14 00:19:29;;;;;;;3.72;2.35;;;19.70;41.20;;;;;;8326007;28;20522;-47
2024/01/14 00:23:30;;;;;;;3.60;1.85;;;19.80;40.80;;;;;;8326176;28;20383;-45
2024/01/14 00:27:30;;;;;;;3.42;2.30;;;19.80;40.50;;;;;;8325675;28;20026;-46
2024/01/14 00:31:31;;;;;;;2.20;1.70;;;19.80;40.30;;;;;;8325486;28;20032;-45
2024/01/14 00:35:32;;;;;;;4.25;2.58;;;19.90;40.10;;;;;;8325162;28;20025;-46
2024/01/14 00:39:39;;;;;;;3.22;2.28;;;19.90;39.80;;;;;;8324040;28;20061;-46
2024/01/14 00:43:40;;;;;;;4.82;2.58;;;19.90;39.80;;;;;;8325240;28;20045;-46
2024/01/14 00:47:41;;;;;;;3.05;2.03;;;19.90;39.70;;;;;;8325032;28;20045;-46
2024/01/14 00:51:42;;;;;;;3.50;2.30;;;20.00;39.70;;;;;;8325072;28;20048;-46
2024/01/14 00:55:42;;;;;;;3.00;1.83;;;20.00;39.50;;;;;;8323868;28;20112;-46
2024/01/14 00:59:43;;;;;;;5.85;2.15;;;19.90;40.10;;;;;;8325607;28;20030;-46
2024/01/14 01:03:44;;;;;;;2.53;2.03;;;19.80;41.00;;;;;;8323310;28;20045;-46
2024/01/14 01:07:45;;;;;;;2.60;1.70;;;19.70;40.90;;;;;;8324272;28;20028;-46
2024/01/14 01:11:45;;;;;;;;;;;19.80;40.50;;;;;;8324737;28;20031;-46
2024/01/14 01:15:46;;;;;;;2.60;1.90;;;19.90;40.20;;;;;;8324136;28;19917;-46
2024/01/14 01:19:47;;;;;;;4.18;2.10;;;19.90;40.50;;;;;;8328135;28;20033;-45
2024/01/14 01:23:48;;;;;;;2.83;1.77;;;20.00;39.80;;;;;;8329741;28;20538;-47
2024/01/14 01:27:48;;;;;;;2.22;1.80;;;20.00;39.60;;;;;;8329273;28;20124;-46
2024/01/14 01:31:49;;;;;;;2.67;1.75;;;20.00;39.60;;;;;;8329415;28;20033;-45
2024/01/14 01:35:50;;;;;;;3.10;2.05;;;20.00;39.50;;;;;;8328479;28;20383;-47
2024/01/14 01:39:50;;;;;;;2.67;2.10;;;20.00;39.50;;;;;;8329262;28;20042;-48
2024/01/14 01:43:51;;;;;;;2.03;1.73;;;20.00;39.40;;;;;;8329343;28;20475;-47
2024/01/14 01:47:52;;;;;;;5.97;1.73;;;19.80;40.30;;;;;;8329323;28;20034;-47
2024/01/14 01:51:53;;;;;;;3.38;1.98;;;19.70;40.90;;;;;;8327938;28;20123;-47
2024/01/14 01:55:55;;;;;;;2.88;1.95;;;19.70;40.80;;;;;;8328798;28;20464;-47
2024/01/14 01:59:55;;;;;;;;;;;19.70;40.50;;;;;;8329470;28;20037;-47
2024/01/14 02:03:56;;;;;;;2.40;1.90;;;19.70;40.20;;;;;;8329063;28;19959;-47
2024/01/14 02:07:58;;;;;;;2.78;1.98;;;19.80;40.00;;;;;;8328848;28;20049;-52
2024/01/14 02:12:02;;;;;;;5.47;2.45;;;19.80;39.90;;;;;;8323988;28;20115;-52
2024/01/14 02:16:03;;;;;;;7.82;2.00;;;19.80;39.80;;;;;;8324676;28;20049;-48
2024/01/14 02:20:04;;;;;;;2.97;2.38;;;19.80;39.70;;;;;;8324611;28;20034;-49
2024/01/14 02:24:33;;;;;;;3.13;2.20;;;19.70;39.60;;;;;;8324509;28;20029;-50
2024/01/14 02:28:34;;;;;;;2.60;1.85;;;19.70;39.40;;;;;;8325542;28;20033;-49
2024/01/14 02:32:38;;;;;;;3.60;1.90;;;19.70;39.30;;;;;;8325368;28;20033;-50
2024/01/14 02:36:39;;;;;;;4.65;1.95;;;19.60;40.40;;;;;;8325060;28;20034;-49
2024/01/14 02:40:40;;;;;;;2.95;2.05;;;19.40;41.00;;;;;;8332659;28;20065;-50
2024/01/14 02:44:40;;;;;;;4.32;1.88;;;19.40;40.60;;;;;;8314788;28;20034;-50
2024/01/14 02:48:41;;;;;;;3.50;2.28;;;19.50;40.30;;;;;;8332334;28;20052;-50
2024/01/14 02:52:42;;;;;;;2.33;1.98;;;19.50;39.90;;;;;;8332640;28;20041;-49
2024/01/14 02:56:42;;;;;;;2.38;1.67;;;19.50;39.80;;;;;;8331722;28;20402;-49
2024/01/14 03:00:43;;;;;;;2.38;1.65;;;19.60;39.60;;;;;;8330710;28;20042;-50
2024/01/14 03:04:44;;;;;;;4.82;1.42;;;19.60;39.50;;;;;;8332584;28;20096;-50
2024/01/14 03:08:45;;;;;;;3.08;2.10;;;19.60;39.40;;;;;;8331934;28;20395;-49
2024/01/14 03:12:45;;;;;;;3.72;2.22;;;19.60;39.30;;;;;;8331699;28;20034;-49
2024/01/14 03:16:46;;;;;;;2.97;1.80;;;19.60;39.20;;;;;;8330309;28;20522;-50
2024/01/14 03:20:47;;;;;;;2.65;1.90;;;19.60;39.20;;;;;;8331516;28;20091;-50
2024/01/14 03:24:47;;;;;;;3.97;1.85;;;19.40;40.30;;;;;;8330411;28;20034;-49
2024/01/14 03:28:48;;;;;;;3.03;2.47;;;19.30;40.90;;;;;;8330984;28;20091;-52
2024/01/14 03:32:49;;;;;;;4.25;2.00;;;19.30;40.50;;;;;;8331380;28;20057;-51
2024/01/14 03:36:50;;;;;;;2.30;1.70;;;19.30;40.10;;;;;;8330961;28;20030;-51
2024/01/14 03:40:51;;;;;;;2.95;1.77;;;19.40;39.90;;;;;;8330745;28;20399;-50
2024/01/14 03:44:51;;;;;;;1.77;1.58;;;19.40;39.60;;;;;;8313039;28;20033;-50
2024/01/14 03:48:52;;;;;;;2.63;1.52;;;19.40;39.50;;;;;;8329446;28;20068;-49
2024/01/14 03:52:53;;;;;;;2.17;1.67;;;19.40;39.30;;;;;;8330342;28;20115;-49
2024/01/14 03:56:53;;;;;;;2.38;1.92;;;19.40;39.20;;;;;;8330097;28;20042;-49
2024/01/14 04:00:54;;;;;;;2.20;1.55;;;19.50;39.20;;;;;;8329182;28;20037;-51
2024/01/14 04:04:55;;;;;;;2.47;1.55;;;19.50;39.10;;;;;;8329964;28;20033;-49
2024/01/14 04:08:56;;;;;;;1.90;1.67;;;19.50;39.10;;;;;;8329651;28;20403;-49
2024/01/14 04:12:56;;;;;;;2.00;1.50;;;19.30;40.20;;;;;;8329705;28;20025;-52
2024/01/14 04:16:57;;;;;;;2.20;1.73;;;19.20;40.60;;;;;;8329823;28;20464;-50
2024/01/14 04:20:58;;;;;;;2.22;1.58;;;19.20;40.20;;;;;;8328216;28;20128;-53
2024/01/14 04:24:58;;;;;;;2.65;2.13;;;19.30;39.90;;;;;;8329382;28;20116;-50
2024/01/14 04:28:59;;;;;;;2.20;1.90;;;19.30;39.60;;;;;;8329273;28;20041;-49
2024/01/14 04:33:00;;;;;;;2.10;1.60;;;19.30;39.40;;;;;;8329359;28;20084;-51
2024/01/14 04:37:01;;;;;;;2.05;1.65;;;19.40;39.30;;;;;;8329088;28;20128;-50
2024/01/14 04:41:01;;;;;;;2.15;1.45;;;19.40;39.20;;;;;;8329184;28;20034;-49
2024/01/14 04:45:02;;;;;;;1.73;1.48;;;19.40;39.10;;;;;;8328903;28;20092;-50
2024/01/14 04:49:03;;;;;;;2.10;1.38;;;19.40;39.00;;;;;;8328465;28;20040;-50
2024/01/14 04:53:04;;;;;;;2.53;1.58;;;19.40;38.90;;;;;;8328553;28;20544;-50
2024/01/14 04:57:05;;;;;;;2.00;1.45;;;19.40;38.90;;;;;;8328505;28;20376;-49
2024/01/14 05:01:06;;;;;;;2.03;1.70;;;19.30;40.10;;;;;;8326969;28;20046;-50
2024/01/14 05:05:07;;;;;;;1.85;1.65;;;19.10;40.40;;;;;;8327860;28;20044;-49
2024/01/14 05:09:08;;;;;;;2.30;1.30;;;19.10;40.00;;;;;;8326549;28;20128;-49
2024/01/14 05:13:08;;;;;;;2.28;1.77;;;19.30;39.70;;;;;;8328081;28;20404;-50
2024/01/14 05:17:09;;;;;;;2.03;1.50;;;19.30;39.40;;;;;;8327870;28;20061;-51
2024/01/14 05:21:16;;;;;;;2.40;1.60;;;19.30;39.30;;;;;;8327918;28;20117;-49
2024/01/14 05:25:17;;;;;;;2.28;1.50;;;19.30;39.10;;;;;;8327617;28;20033;-50
2024/01/14 05:29:18;;;;;;;2.40;1.45;;;19.40;39.00;;;;;;8326116;28;20185;-49
2024/01/14 05:33:18;;;;;;;2.00;1.48;;;19.30;38.90;;;;;;8327003;28;20041;-49
2024/01/14 05:37:19;;;;;;;1.88;1.60;;;19.30;38.80;;;;;;8327129;28;20060;-50
2024/01/14 05:41:20;;;;;;;1.77;1.35;;;19.40;38.80;;;;;;8327077;28;20025;-49
2024/01/14 05:45:21;;;;;;;2.17;1.48;;;19.30;39.00;;;;;;8327202;28;20101;-49
2024/01/14 05:49:21;;;;;;;2.10;1.65;;;19.20;40.10;;;;;;8326757;28;20048;-49
2024/01/14 05:53:22;;;;;;;1.85;1.52;;;19.10;40.30;;;;;;8327197;28;20109;-52
2024/01/14 05:57:23;;;;;;;1.57;1.30;;;19.10;39.90;;;;;;8326573;28;20033;-49
2024/01/14 06:01:24;;;;;;;2.20;1.55;;;19.20;39.60;;;;;;8326590;28;20303;-50
2024/01/14 06:05:24;;;;;;;2.30;1.42;;;19.30;39.30;;;;;;8326800;28;20029;-50
2024/01/14 06:09:25;;;;;;;1.85;1.50;;;19.30;39.10;;;;;;8326252;28;20250;-50
2024/01/14 06:13:26;;;;;;;1.50;1.40;;;19.30;38.90;;;;;;8331093;28;20030;-52
2024/01/14 06:17:27;;;;;;;1.90;1.70;;;19.30;38.80;;;;;;8334472;28;20313;-52
2024/01/14 06:21:27;;;;;;;2.72;1.42;;;19.30;38.70;;;;;;8333366;28;20040;-51
2024/01/14 06:25:28;;;;;;;1.88;1.52;;;19.40;38.60;;;;;;8333014;28;20037;-52
2024/01/14 06:29:29;;;;;;;1.40;1.30;;;19.40;38.50;;;;;;8333082;28;20041;-53
2024/01/14 06:33:31;;;;;;;1.42;1.33;;;19.40;38.80;;;;;;8332927;28;20032;-49
2024/01/14 06:37:31;;;;;;;1.65;1.27;;;19.20;39.90;;;;;;8333040;28;20041;-52
2024/01/14 06:41:33;;;;;;;2.17;1.50;;;19.10;40.00;;;;;;8332632;28;20037;-50
2024/01/14 06:45:34;;;;;;;1.60;1.20;;;19.10;39.60;;;;;;8332586;28;20509;-51
2024/01/14 06:49:35;;;;;;;1.60;1.40;;;19.20;39.30;;;;;;8332435;28;20364;-52
2024/01/14 06:53:35;;;;;;;1.63;1.45;;;19.30;39.10;;;;;;8332590;28;20030;-50
2024/01/14 06:57:36;;;;;;;1.42;1.20;;;19.30;38.90;;;;;;8332230;28;20121;-53
2024/01/14 07:01:37;;;;;;;1.77;1.40;;;19.30;38.70;;;;;;8332164;28;20033;-52
2024/01/14 07:05:37;;;;;;;1.48;1.33;;;19.30;38.70;;;;;;8331069;28;20121;-51
2024/01/14 07:09:38;;;;;;;1.73;1.45;;;19.30;38.60;;;;;;8331526;28;20179;-52
2024/01/14 07:13:43;;;;;;;1.77;1.67;;;19.30;38.40;;;;;;8331908;28;20068;-52
2024/01/14 07:17:44;;;;;;;1.63;1.05;;;19.40;38.40;;;;;;8330557;28;20045;-50
2024/01/14 07:21:45;;;;;;;2.00;1.40;;;19.30;38.90;;;;;;8331607;28;20057;-52
2024/01/14 07:25:45;;;;;;;1.58;1.33;;;19.10;39.90;;;;;;8329336;28;20045;-50
2024/01/14 07:29:46;;;;;;;1.30;1.17;;;19.00;39.90;;;;;;8330111;28;20029;-51
2024/01/14 07:33:49;;;;;;;2.00;1.50;;;19.10;39.60;;;;;;8331244;28;20033;-52
2024/01/14 07:37:49;;;;;;;1.98;1.63;;;19.20;39.30;;;;;;8330911;28;20631;-52
2024/01/14 07:41:50;;;;;;;1.90;1.23;;;19.20;39.10;;;;;;8331022;28;20100;-51
2024/01/14 07:45:51;;;;;;;1.77;1.48;;;19.20;38.80;;;;;;8330578;28;20299;-52
2024/01/14 07:49:51;;;;;;;2.35;1.50;;;19.30;38.70;;;;;;8331250;28;20029;-51
2024/01/14 07:53:52;;;;;;;2.50;1.70;;;19.30;38.60;;;;;;8330494;28;20515;-51
2024/01/14 07:57:53;;;;;;;1.30;1.20;;;19.30;38.40;;;;;;8330365;28;20295;-52
2024/01/14 08:01:53;;;;;;;1.77;1.30;;;19.30;38.30;;;;;;8330438;28;20102;-52
2024/01/14 08:05:54;;;;;;;1.98;1.65;;;19.40;38.20;;;;;;8330107;28;20029;-52
2024/01/14 08:09:55;;;;;;;1.50;1.35;;;19.30;38.70;;;;;;8329991;28;20507;-50
2024/01/14 08:13:58;;;;;;;1.55;1.33;;;19.10;39.70;;;;;;8328997;28;20386;-51
2024/01/14 08:17:58;;;;;;;1.80;1.40;;;19.10;39.70;;;;;;8328623;28;20124;-51
2024/01/14 08:21:59;;;;;;;2.13;1.70;;;19.10;39.30;;;;;;8329617;28;20036;-52
2024/01/14 08:26:01;;;;;;;1.70;1.23;;;19.20;39.00;;;;;;8330329;28;20467;-51
2024/01/14 08:30:04;;;;;;;1.88;1.35;;;19.20;38.70;;;;;;8329605;28;20280;-50
2024/01/14 08:34:04;;;;;;;2.03;1.45;;;19.30;38.60;;;;;;8329042;28;20030;-52
2024/01/14 08:38:05;;;;;;;1.52;1.23;;;19.30;38.50;;;;;;8328457;28;20038;-52
2024/01/14 08:42:06;;;;;;;1.25;1.15;;;19.30;38.40;;;;;;8328865;28;20041;-52
2024/01/14 08:46:06;;;;;;;1.58;1.30;;;19.30;38.30;;;;;;8328832;28;20407;-53
2024/01/14 08:50:11;;;;;;;1.20;1.10;;;19.30;38.20;;;;;;8328604;28;20088;-52
2024/01/14 08:54:12;;;;;;;1.52;1.00;;;19.30;38.10;;;;;;8328577;28;20037;-51
2024/01/14 08:58:12;;;;;;;1.40;1.08;;;19.30;38.80;;;;;;8328486;28;20487;-52
2024/01/14 09:02:13;;;;;;;1.38;1.20;;;19.00;39.70;;;;;;8328358;28;20033;-51
2024/01/14 09:06:14;;;;;;;1.60;1.40;;;19.00;39.60;;;;;;8328025;28;20037;-50
2024/01/14 09:10:15;;;;;;;1.55;1.27;;;19.10;39.20;;;;;;8327846;28;20049;-52
2024/01/14 09:14:16;;;;;;;1.38;1.15;;;19.20;38.80;;;;;;8328169;28;20061;-49
2024/01/14 09:18:16;;;;;;;1.83;1.20;;;19.20;38.60;;;;;;8327064;28;20056;-51
2024/01/14 09:22:17;;;;;;;1.25;1.15;;;19.30;38.50;;;;;;8327735;28;20026;-53
2024/01/14 09:26:18;;;;;;;2.00;1.50;;;19.30;38.40;;;;;;8327406;28;20037;-51
2024/01/14 09:30:18;;;;;;;1.50;1.20;;;19.30;38.30;;;;;;8327569;28;20038;-52
2024/01/14 09:34:19;;;;;;;1.60;1.42;;;19.30;38.20;;;;;;8327520;28;20534;-52
2024/01/14 09:38:20;;;;;;;1.83;1.40;;;19.30;38.10;;;;;;8327808;28;20030;-51
2024/01/14 09:42:36;;;;;;;1.58;1.25;;;19.30;38.10;;;;;;8327124;28;20128;-51
2024/01/14 09:46:38;;;;;;;1.60;1.17;;;19.10;38.90;;;;;;8326659;28;20062;-50
2024/01/14 09:50:38;;;;;;;2.05;1.80;;;19.00;39.80;;;;;;8327066;28;20037;-50
2024/01/14 09:54:39;;;;;;;2.83;1.55;;;19.00;39.50;;;;;;8326900;28;20032;-50
2024/01/14 09:58:42;;;;;;;1.42;1.13;;;19.10;39.10;;;;;;8326886;28;20487;-50
2024/01/14 10:02:44;;;;;;;2.70;1.45;;;19.20;38.70;;;;;;8326557;28;20033;-50
2024/01/14 10:06:47;;;;;;;1.30;1.05;;;19.30;38.50;;;;;;8326629;28;20029;-49
2024/01/14 10:10:53;;;;;;;1.50;1.40;;;19.30;38.30;;;;;;8326807;28;20049;-53
2024/01/14 10:14:58;;;;;;;2.30;1.25;;;19.30;38.20;;;;;;8326971;28;20053;-50
2024/01/14 10:18:59;;;;;;;2.05;1.38;;;19.30;38.10;;;;;;8326681;28;20418;-50
2024/01/14 10:23:00;;;;;;;1.40;1.30;;;19.30;38.10;;;;;;8326525;28;20029;-50
2024/01/14 10:27:00;;;;;;;1.63;1.20;;;19.30;38.00;;;;;;8326347;28;20029;-50
2024/01/14 10:31:03;;;;;;;1.13;0.98;;;19.20;38.00;;;;;;8326275;28;20045;-51
2024/01/14 10:35:13;;;;;;;1.30;1.20;;;19.10;39.10;;;;;;8326686;28;20037;-50
2024/01/14 10:39:14;;;;;;;1.10;1.00;;;18.90;39.70;;;;;;8326145;28;20065;-49
2024/01/14 10:43:14;;;;;;;1.90;1.20;;;19.00;39.40;;;;;;8326137;28;20453;-50
2024/01/14 10:47:17;;;;;;;1.88;1.40;;;19.10;39.00;;;;;;8326008;28;20107;-49
2024/01/14 10:51:23;;;;;;;2.17;1.30;;;19.10;38.70;;;;;;8326230;28;20056;-52
2024/01/14 10:55:32;;;;;;;1.15;1.00;;;19.20;38.50;;;;;;8325911;28;20471;-51
2024/01/14 10:59:36;;;;;;;2.10;1.48;;;19.20;38.20;;;;;;8328584;28;20519;-53
2024/01/14 11:03:38;;;;;;;1.70;1.25;;;19.20;38.20;;;;;;8332165;28;20042;-51
2024/01/14 11:07:39;;;;;;;1.60;1.27;;;19.30;38.00;;;;;;8331611;28;20033;-51
2024/01/14 11:11:51;;;;;;;1.60;1.35;;;19.30;38.00;;;;;;8331791;28;20064;-52
2024/01/14 11:16:02;;;;;;;1.30;1.17;;;19.30;37.90;;;;;;8331772;28;20025;-50
2024/01/14 11:20:05;;;;;;;1.58;1.10;;;19.20;38.10;;;;;;8331416;28;20040;-52
2024/01/14 11:24:06;;;;;;;1.80;1.40;;;19.00;39.10;;;;;;8330214;28;20029;-52
2024/01/14 11:28:07;;;;;;;1.27;1.08;;;18.90;39.50;;;;;;8331198;28;20037;-53
2024/01/14 11:32:20;;;;;;;1.33;1.10;;;19.00;39.10;;;;;;8331199;28;20031;-51
2024/01/14 11:36:55;;;;;;;2.00;1.40;;;19.10;38.80;;;;;;8330996;28;20029;-51
2024/01/14 11:40:55;;;;;;;1.90;1.30;;;19.10;38.40;;;;;;8331134;28;20375;-52
2024/01/14 11:44:56;;;;;;;1.83;1.25;;;19.20;38.30;;;;;;8330732;28;20040;-51
2024/01/14 11:48:57;;;;;;;1.40;1.17;;;19.20;38.10;;;;;;8330592;28;20041;-52
2024/01/14 11:52:59;;;;;;;1.55;1.13;;;19.20;38.00;;;;;;8330682;28;20026;-51
2024/01/14 11:57:19;;;;;;;2.17;1.30;;;19.20;37.90;;;;;;8330450;28;20561;-52
2024/01/14 12:01:23;;;;;;;2.10;1.40;;;19.20;37.80;;;;;;8330291;28;20034;-50
2024/01/14 12:05:24;;;;;;;1.83;1.40;;;19.20;37.80;;;;;;8329974;28;20033;-51
2024/01/14 12:09:25;;;;;;;1.40;1.00;;;19.10;38.50;;;;;;8329644;28;20056;-50
2024/01/14 12:13:25;;;;;;;2.13;1.40;;;19.00;39.40;;;;;;8329904;28;20030;-51
2024/01/14 12:17:26;;;;;;;2.03;1.50;;;18.90;39.20;;;;;;8329728;28;20476;-51
2024/01/14 12:21:28;;;;;;;1.48;1.23;;;19.00;38.80;;;;;;8329644;28;20284;-50
2024/01/14 12:25:29;;;;;;;1.38;1.10;;;19.10;38.60;;;;;;8329635;28;20408;-52
2024/01/14 12:29:30;;;;;;;1.25;1.10;;;19.10;38.30;;;;;;8329196;28;20041;-52
2024/01/14 12:33:33;;;;;;;1.83;1.30;;;19.20;38.20;;;;;;8329290;28;20040;-51
2024/01/14 12:37:34;;;;;;;1.58;1.17;;;19.20;38.00;;;;;;8328945;28;20545;-51
2024/01/14 12:41:35;;;;;;;1.70;1.33;;;19.20;38.00;;;;;;8328980;28;20060;-51
2024/01/14 12:45:36;;;;;;;2.00;1.45;;;19.20;37.80;;;;;;8328935;28;20482;-52
2024/01/14 12:49:38;;;;;;;1.65;1.20;;;19.20;37.70;;;;;;8327493;28;20033;-51
2024/01/14 12:53:39;;;;;;;1.73;1.13;;;19.30;37.80;;;;;;8328533;28;20044;-50
2024/01/14 12:57:46;;;;;;;1.20;1.10;;;19.10;38.50;;;;;;8328507;28;20124;-52
2024/01/14 13:01:46;;;;;;;1.10;0.95;;;18.90;39.30;;;;;;8328323;28;20036;-51
2024/01/14 13:05:47;;;;;;;1.17;1.08;;;19.00;39.00;;;;;;8328206;28;20042;-52
2024/01/14 13:09:48;;;;;;;1.67;1.13;;;19.10;38.70;;;;;;8327858;28;20060;-50
2024/01/14 13:13:49;;;;;;;1.47;1.10;;;19.10;38.40;;;;;;8328130;28;20029;-51
2024/01/14 13:17:51;;;;;;;1.30;1.20;;;19.10;38.40;;;;;;8327897;28;20832;-52
2024/01/14 13:21:51;;;;;;;1.30;1.20;;;19.20;38.10;;;;;;8326999;28;20041;-52
2024/01/14 13:25:52;;;;;;;1.17;1.08;;;19.20;37.90;;;;;;8327501;28;20041;-52
2024/01/14 13:29:53;;;;;;;1.20;1.00;;;19.20;37.80;;;;;;8327696;28;20120;-51
2024/01/14 13:33:53;;;;;;;2.10;1.30;;;19.20;37.80;;;;;;8327423;28;20034;-52
2024/01/14 13:37:54;;;;;;;1.20;1.10;;;19.20;37.70;;;;;;8327364;28;20040;-51
2024/01/14 13:41:55;;;;;;;1.63;1.33;;;19.30;37.70;;;;;;8327248;28;20026;-51
2024/01/14 13:45:56;;;;;;;2.25;1.58;;;19.10;38.70;;;;;;8327094;28;20117;-52
2024/01/14 13:49:57;;;;;;;1.88;1.30;;;18.90;39.30;;;;;;8325853;28;20034;-49
2024/01/14 13:53:57;;;;;;;1.33;1.00;;;18.90;39.00;;;;;;8327084;28;20033;-50
2024/01/14 13:57:58;;;;;;;1.70;1.02;;;19.00;39.20;;;;;;8326983;28;20067;-51
2024/01/14 14:01:59;;;;;;;1.37;1.20;;;19.10;38.40;;;;;;8326767;28;20055;-51
2024/01/14 14:05:59;;;;;;;1.80;1.30;;;19.10;38.20;;;;;;8327113;28;20288;-52
2024/01/14 14:10:00;;;;;;;1.10;1.00;;;19.10;38.00;;;;;;8326586;28;20727;-52
2024/01/14 14:14:01;;;;;;;1.30;1.20;;;19.10;37.90;;;;;;8326482;28;20290;-52
2024/01/14 14:18:02;;;;;;;1.63;1.27;;;19.20;37.80;;;;;;8326713;28;20041;-51
2024/01/14 14:22:02;;;;;;;1.50;1.33;;;19.20;37.70;;;;;;8326600;28;20044;-51
2024/01/14 14:26:03;;;;;;;1.58;1.23;;;19.20;37.70;;;;;;8326271;28;20030;-49
2024/01/14 14:30:04;;;;;;;2.35;1.27;;;19.30;37.70;;;;;;8326268;28;20033;-48
2024/01/14 14:34:05;;;;;;;1.30;1.20;;;19.10;38.70;;;;;;8328377;28;20029;-50
2024/01/14 14:38:06;;;;;;;1.60;1.20;;;18.90;39.20;;;;;;8332934;28;20116;-49
2024/01/14 14:42:07;;;;;;;1.50;1.30;;;19.00;38.90;;;;;;8332677;28;20044;-50
2024/01/14 14:46:07;;;;;;;1.27;1.15;;;19.00;38.50;;;;;;8332534;28;20645;-50
2024/01/14 14:50:09;;;;;;;1.10;1.00;;;19.10;38.30;;;;;;8332586;28;20068;-49
2024/01/14 14:54:11;;;;;;;1.92;1.40;;;19.10;38.10;;;;;;8332416;28;20034;-49
2024/01/14 14:58:11;;;;;;;2.10;1.20;;;19.10;38.00;;;;;;8332088;28;20033;-53
2024/01/14 15:02:12;;;;;;;1.80;1.17;;;19.20;37.90;;;;;;8332260;28;20480;-50
2024/01/14 15:06:13;;;;;;;1.52;1.17;;;19.10;37.80;;;;;;8331896;28;20045;-52
2024/01/14 15:10:17;;;;;;;1.40;1.30;;;19.10;37.70;;;;;;8331551;28;20053;-49
2024/01/14 15:14:17;;;;;;;1.38;1.27;;;19.20;37.70;;;;;;8332712;28;20054;-48
2024/01/14 15:18:18;;;;;;;2.90;0.93;;;19.20;37.70;;;;;;8331712;28;20037;-50
2024/01/14 15:22:19;;;;;;;1.40;1.10;;;19.00;38.70;;;;;;8331294;28;20438;-50
2024/01/14 15:26:19;;;;;;;1.75;1.20;;;18.90;39.20;;;;;;8331442;28;20365;-52
2024/01/14 15:30:20;;;;;;;1.30;1.00;;;19.00;38.80;;;;;;8331283;28;20030;-48
2024/01/14 15:34:21;;;;;;;1.40;1.20;;;19.10;38.40;;;;;;8331263;28;20056;-48
2024/01/14 15:38:21;;;;;;;2.63;1.20;;;19.10;38.20;;;;;;8331301;28;20395;-48
2024/01/14 15:42:22;;;;;;;1.13;0.95;;;19.10;38.00;;;;;;8329598;28;20037;-47
2024/01/14 15:46:23;;;;;;;1.30;1.10;;;19.10;37.80;;;;;;8330404;28;20033;-47
2024/01/14 15:50:24;;;;;;;1.92;1.20;;;19.10;37.70;;;;;;8330619;28;20030;-48
2024/01/14 15:54:25;;;;;;;1.35;1.10;;;19.20;37.70;;;;;;8330429;28;20033;-47
2024/01/14 15:58:25;;;;;;;2.17;1.15;;;19.20;37.60;;;;;;8329456;28;20537;-48
2024/01/14 16:02:26;;;;;;;1.20;1.10;;;19.20;37.50;;;;;;8330352;28;20109;-49
2024/01/14 16:06:27;;;;;;;1.30;1.00;;;19.30;37.60;;;;;;8329902;28;20124;-48
2024/01/14 16:10:31;;;;;;;1.80;1.40;;;19.10;38.70;;;;;;8329907;28;20049;-47
2024/01/14 16:14:32;;;;;;;1.02;0.93;;;18.90;39.00;;;;;;8329900;28;20022;-48
2024/01/14 16:18:34;;;;;;;1.10;1.00;;;18.90;38.70;;;;;;8329843;28;20061;-48
2024/01/14 16:22:34;;;;;;;1.13;0.98;;;19.10;38.40;;;;;;8330036;28;20435;-47
2024/01/14 16:26:37;;;;;;;1.50;1.02;;;19.10;38.20;;;;;;8329205;28;20030;-47
2024/01/14 16:30:37;;;;;;;1.45;1.20;;;19.20;38.00;;;;;;8329586;28;20040;-48
2024/01/14 16:34:38;;;;;;;1.75;1.40;;;19.20;37.70;;;;;;8329401;28;20069;-49
2024/01/14 16:38:39;;;;;;;1.20;1.10;;;19.20;37.70;;;;;;8329135;28;20179;-48
2024/01/14 16:42:39;;;;;;;1.80;1.05;;;19.20;37.60;;;;;;8329291;28;20045;-50
2024/01/14 16:46:42;;;;;;;1.17;1.08;;;19.20;37.50;;;;;;8328843;28;20522;-52
2024/01/14 16:50:44;;;;;;;1.77;0.90;;;19.20;37.40;;;;;;8328712;28;20068;-51
2024/01/14 16:54:45;;;;;;;1.20;1.02;;;19.20;37.60;;;;;;8328743;28;20040;-49
2024/01/14 16:58:46;;;;;;;1.30;1.05;;;19.00;38.70;;;;;;8327612;28;20061;-50
2024/01/14 17:02:46;;;;;;;1.98;1.27;;;18.90;39.00;;;;;;8328465;28;20092;-51
2024/01/14 17:06:47;;;;;;;0.95;0.90;;;19.00;38.60;;;;;;8326845;28;20087;-50
2024/01/14 17:10:48;;;;;;;1.65;1.08;;;19.00;38.30;;;;;;8328027;28;20062;-50
2024/01/14 17:14:49;;;;;;;1.73;1.13;;;19.10;38.00;;;;;;8327808;28;20066;-51
2024/01/14 17:18:57;;;;;;;1.00;0.77;;;19.10;37.90;;;;;;8328106;28;20045;-48
2024/01/14 17:23:00;;;;;;;1.08;0.98;;;19.20;37.70;;;;;;8327893;28;20061;-49
2024/01/14 17:27:04;;;;;;;1.50;1.25;;;19.10;37.60;;;;;;8327461;28;20507;-51
2024/01/14 17:31:05;;;;;;;1.35;1.10;;;19.20;37.60;;;;;;8327626;28;20093;-50
2024/01/14 17:35:06;;;;;;;0.95;0.95;;;19.20;37.50;;;;;;8327461;28;20519;-51
2024/01/14 17:39:08;;;;;;;;;;;19.20;37.40;;;;;;8327784;28;20041;-50
2024/01/14 17:43:08;;;;;;;1.55;1.30;;;19.10;37.70;;;;;;8327239;28;20006;-49
2024/01/14 17:47:11;;;;;;;1.30;1.20;;;19.00;38.80;;;;;;8326050;28;20041;-50
2024/01/14 17:51:12;;;;;;;1.38;1.00;;;18.90;38.90;;;;;;8327259;28;20025;-52
2024/01/14 17:55:13;;;;;;;;;;;19.00;38.40;;;;;;8327287;28;20076;-51
2024/01/14 17:59:13;;;;;;;1.37;1.13;;;19.10;38.20;;;;;;8326781;28;20004;-52
2024/01/14 18:03:14;;;;;;;1.50;1.10;;;19.10;38.00;;;;;;8327038;28;20060;-53
2024/01/14 18:07:15;;;;;;;1.52;1.42;;;19.10;37.70;;;;;;8326274;28;20034;-51
2024/01/14 18:11:16;;;;;;;1.33;1.23;;;19.10;37.70;;;;;;8326525;28;20517;-50
2024/01/14 18:15:17;;;;;;;1.20;1.10;;;19.20;37.60;;;;;;8326517;28;20030;-51
2024/01/14 18:19:17;;;;;;;1.13;1.02;;;19.20;37.50;;;;;;8326690;28;20087;-51
2024/01/14 18:23:18;;;;;;;1.58;1.00;;;19.20;37.40;;;;;;8326641;28;20560;-53
2024/01/14 18:27:19;;;;;;;1.92;1.50;;;19.20;37.30;;;;;;8326218;28;20061;-50
2024/01/14 18:31:20;;;;;;;1.38;1.08;;;19.20;37.70;;;;;;8326506;28;20065;-50
2024/01/14 18:35:22;;;;;;;1.90;1.35;;;19.00;38.70;;;;;;8326241;28;20029;-49
2024/01/14 18:39:22;;;;;;;1.25;1.15;;;18.90;38.70;;;;;;8326176;28;20037;-52
2024/01/14 18:43:24;;;;;;;2.23;1.60;;;19.00;38.40;;;;;;8326572;28;20036;-50
2024/01/14 18:47:24;;;;;;;;;;;19.10;38.10;;;;;;8326455;28;20296;-51
2024/01/14 18:51:25;;;;;;;1.47;1.30;;;19.10;37.80;;;;;;8326174;28;19937;-50
2024/01/14 18:55:26;;;;;;;1.40;1.20;;;19.10;37.70;;;;;;8326987;28;20552;-48
2024/01/14 18:59:26;;;;;;;1.58;1.23;;;19.10;37.60;;;;;;8325952;28;20279;-51
2024/01/14 19:03:27;;;;;;;1.15;1.00;;;19.20;37.50;;;;;;8326096;28;20060;-51
2024/01/14 19:07:28;;;;;;;1.65;1.35;;;19.20;37.40;;;;;;8325809;28;20033;-51
2024/01/14 19:11:28;;;;;;;0.93;0.90;;;19.20;37.30;;;;;;8325522;28;20061;-51
2024/01/14 19:15:29;;;;;;;1.33;1.20;;;19.20;37.30;;;;;;8325642;28;20034;-50
2024/01/14 19:19:30;;;;;;;1.35;1.25;;;19.10;37.90;;;;;;8327049;28;20474;-50
2024/01/14 19:23:32;;;;;;;1.05;0.93;;;18.90;38.80;;;;;;8331586;28;20033;-51
2024/01/14 19:27:33;;;;;;;1.20;1.10;;;18.90;38.80;;;;;;8331159;28;20032;-50
2024/01/14 19:31:35;;;;;;;1.30;1.20;;;18.90;38.40;;;;;;8331332;28;20029;-51
2024/01/14 19:35:35;;;;;;;1.20;1.10;;;19.00;38.10;;;;;;8331135;28;20069;-50
2024/01/14 19:39:39;;;;;;;1.27;1.08;;;19.10;37.90;;;;;;8330901;28;20033;-50
2024/01/14 19:43:40;;;;;;;1.20;1.10;;;19.20;37.70;;;;;;8330741;28;20708;-50
2024/01/14 19:47:41;;;;;;;1.73;1.27;;;19.20;37.50;;;;;;8331273;28;20459;-51
2024/01/14 19:51:42;;;;;;;1.63;1.20;;;19.20;37.30;;;;;;8330670;28;20033;-51
2024/01/14 19:55:43;;;;;;;1.10;0.95;;;19.20;37.30;;;;;;8330486;28;20026;-51
2024/01/14 19:59:44;;;;;;;1.38;1.00;;;19.20;37.20;;;;;;8329336;28;20037;-53
2024/01/14 20:03:48;;;;;;;1.40;1.30;;;19.30;37.20;;;;;;8330425;28;20041;-49
2024/01/14 20:07:50;;;;;;;1.42;1.23;;;19.10;37.90;;;;;;8330566;28;20043;-50
2024/01/14 20:11:56;;;;;;;1.45;1.10;;;18.90;38.80;;;;;;8330437;28;20038;-50
2024/01/14 20:15:57;;;;;;;1.65;1.20;;;18.90;38.60;;;;;;8329743;28;20372;-50
2024/01/14 20:19:58;;;;;;;1.30;1.00;;;19.00;38.30;;;;;;8329962;28;20029;-52
2024/01/14 20:23:59;;;;;;;1.13;0.98;;;19.00;38.00;;;;;;8329839;28;20052;-52
2024/01/14 20:28:00;;;;;;;1.30;1.20;;;19.10;37.80;;;;;;8329375;28;20053;-49
2024/01/14 20:32:01;;;;;;;1.33;1.00;;;19.10;37.60;;;;;;8328152;28;20299;-50
2024/01/14 20:36:04;;;;;;;1.63;1.33;;;19.10;37.50;;;;;;8329529;28;20116;-50
2024/01/14 20:40:05;;;;;;;1.40;1.15;;;19.20;37.40;;;;;;8329010;28;20112;-51
2024/01/14 20:44:06;;;;;;;1.10;1.00;;;19.10;37.30;;;;;;8329051;28;20034;-48
2024/01/14 20:48:06;;;;;;;1.58;1.25;;;19.20;37.30;;;;;;8329030;28;20559;-49
2024/01/14 20:52:07;;;;;;;1.50;1.30;;;19.20;37.20;;;;;;8328858;28;20187;-49
2024/01/14 20:56:08;;;;;;;1.95;1.48;;;19.00;38.10;;;;;;8328649;28;20033;-49
2024/01/14 21:00:09;;;;;;;2.15;1.52;;;18.90;38.90;;;;;;8328446;28;20036;-52